createdAt,value
2023-02-05T00:00:39.415Z,104010.16
2023-02-05T00:03:08.232Z,104033.56
2023-02-05T00:05:36.921Z,104038.69
2023-02-05T00:08:05.801Z,104040.47
2023-02-05T00:10:34.620Z,104016.16
2023-02-05T00:13:03.582Z,104013.53
2023-02-05T00:15:32.456Z,104017.03
2023-02-05T00:18:03.296Z,104049.19
2023-02-05T00:20:32.890Z,104055.22
2023-02-05T00:23:02.451Z,104042.13
2023-02-05T00:25:33.544Z,104005.56
2023-02-05T00:28:02.574Z,104002.09
2023-02-05T00:30:32.349Z,104015.16
2023-02-05T00:33:02.433Z,104039.47
2023-02-05T00:35:31.044Z,104043.72
2023-02-05T00:38:00.710Z,104030.63
2023-02-05T00:40:29.231Z,103999.34
2023-02-05T00:42:57.808Z,103995.00
2023-02-05T00:45:26.549Z,104002.81
2023-02-05T00:47:55.132Z,104035.88
2023-02-05T00:50:25.320Z,104065.38
2023-02-05T00:52:53.890Z,104067.97
2023-02-05T00:55:23.634Z,104056.75
2023-02-05T00:57:52.429Z,104041.88
2023-02-05T01:00:21.861Z,104059.25
2023-02-05T01:02:50.566Z,104091.38
2023-02-05T01:05:19.666Z,104114.81
2023-02-05T01:07:49.832Z,104121.81
2023-02-05T01:10:18.399Z,104098.25
2023-02-05T01:12:47.083Z,104086.09
2023-02-05T01:15:15.738Z,104095.66
2023-02-05T01:17:44.507Z,104121.69
2023-02-05T01:20:14.499Z,104157.19
2023-02-05T01:22:44.704Z,104151.06
2023-02-05T01:25:14.922Z,104142.34
2023-02-05T01:27:44.699Z,104128.47
2023-02-05T01:30:14.083Z,104138.06
2023-02-05T01:32:42.661Z,104165.03
2023-02-05T01:35:11.592Z,104170.97
2023-02-05T01:37:40.483Z,104160.28
2023-02-05T01:40:09.652Z,104151.72
2023-02-05T01:42:39.736Z,104141.34
2023-02-05T01:45:54.166Z,104149.94
2023-02-05T01:48:26.510Z,104156.72
2023-02-05T01:51:01.620Z,104158.19
2023-02-05T01:53:33.239Z,104162.56
2023-02-05T01:56:04.724Z,104162.56
2023-02-05T01:58:42.793Z,104152.97
2023-02-05T02:01:11.380Z,104145.06
2023-02-05T02:03:42.252Z,104165.03
2023-02-05T02:06:11.016Z,104187.59
2023-02-05T02:08:39.561Z,104192.50
2023-02-05T02:11:10.661Z,104197.56
2023-02-05T02:13:43.164Z,104184.59
2023-02-05T02:16:13.017Z,104182.81
2023-02-05T02:18:42.239Z,104203.63
2023-02-05T02:21:42.770Z,104211.38
2023-02-05T02:24:44.800Z,104209.53
2023-02-05T02:27:38.232Z,104200.06
2023-02-05T02:30:15.896Z,104195.88
2023-02-05T02:32:50.169Z,104204.59
2023-02-05T02:35:26.848Z,104205.28
2023-02-05T02:38:03.495Z,104182.66
2023-02-05T02:40:37.732Z,104148.00
2023-02-05T02:43:12.151Z,104141.84
2023-02-05T02:45:49.437Z,104158.50
2023-02-05T02:48:22.188Z,104173.72
2023-02-05T02:50:55.725Z,104169.97
2023-02-05T02:53:28.295Z,104153.16
2023-02-05T02:55:58.635Z,104151.22
2023-02-05T02:58:33.053Z,104172.00
2023-02-05T03:01:06.235Z,104200.53
2023-02-05T03:03:39.907Z,104191.78
2023-02-05T03:06:11.368Z,104157.28
2023-02-05T03:08:47.367Z,104134.19
2023-02-05T03:11:17.699Z,104141.31
2023-02-05T03:13:48.042Z,104177.88
2023-02-05T03:16:20.433Z,104168.31
2023-02-05T03:18:50.531Z,104137.06
2023-02-05T03:21:24.368Z,104137.75
2023-02-05T03:23:53.269Z,104149.91
2023-02-05T03:26:30.324Z,104166.31
2023-02-05T03:29:02.246Z,104159.13
2023-02-05T03:31:42.285Z,104131.88
2023-02-05T03:34:21.521Z,104138.84
2023-02-05T03:37:02.296Z,104157.97
2023-02-05T03:39:43.878Z,104197.06
2023-02-05T03:42:23.071Z,104215.06
2023-02-05T03:45:29.982Z,104211.22
2023-02-05T03:48:14.858Z,104221.03
2023-02-05T03:50:51.700Z,104232.50
2023-02-05T03:53:27.890Z,104250.09
2023-02-05T03:56:05.566Z,104255.34
2023-02-05T03:58:41.687Z,104257.13
2023-02-05T04:01:11.941Z,104247.56
2023-02-05T04:03:42.230Z,104252.69
2023-02-05T04:06:10.799Z,104262.13
2023-02-05T04:08:40.450Z,104269.13
2023-02-05T04:11:09.908Z,104256.13
2023-02-05T04:13:39.808Z,104259.59
2023-02-05T04:16:08.445Z,104260.50
2023-02-05T04:18:39.446Z,104253.44
2023-02-05T04:21:09.530Z,104253.44
2023-02-05T04:23:38.081Z,104274.31
2023-02-05T04:26:06.788Z,104276.84
2023-02-05T04:28:36.640Z,104282.91
2023-02-05T04:31:09.894Z,104288.91
2023-02-05T04:33:40.996Z,104284.63
2023-02-05T04:36:11.609Z,104286.28
2023-02-05T04:38:41.886Z,104287.16
2023-02-05T04:41:10.625Z,104262.00
2023-02-05T04:43:41.274Z,104240.13
2023-02-05T04:46:13.714Z,104266.09
2023-02-05T04:48:42.242Z,104271.22
2023-02-05T04:51:15.495Z,104256.47
2023-02-05T04:53:44.196Z,104240.78
2023-02-05T04:56:15.215Z,104246.97
2023-02-05T04:58:44.824Z,104252.19
2023-02-05T05:01:15.419Z,104233.19
2023-02-05T05:03:44.442Z,104240.09
2023-02-05T05:06:14.924Z,104246.94
2023-02-05T05:08:44.173Z,104253.91
2023-02-05T05:11:14.848Z,104246.09
2023-02-05T05:13:44.344Z,104242.59
2023-02-05T05:16:15.630Z,104246.00
2023-02-05T05:18:45.865Z,104245.91
2023-02-05T05:21:17.855Z,104236.34
2023-02-05T05:23:47.525Z,104233.63
2023-02-05T05:26:16.515Z,104237.13
2023-02-05T05:28:45.181Z,104237.75
2023-02-05T05:31:17.717Z,104224.78
2023-02-05T05:33:46.733Z,104239.63
2023-02-05T05:36:18.276Z,104249.13
2023-02-05T05:38:46.988Z,104243.06
2023-02-05T05:41:38.144Z,104243.16
2023-02-05T05:44:07.876Z,104232.66
2023-02-05T05:46:37.850Z,104233.31
2023-02-05T05:49:08.435Z,104246.94
2023-02-05T05:51:38.660Z,104236.47
2023-02-05T05:54:07.455Z,104227.06
2023-02-05T05:56:36.643Z,104221.97
2023-02-05T05:59:07.471Z,104210.78
2023-02-05T06:01:37.264Z,104203.78
2023-02-05T06:04:05.783Z,104197.69
2023-02-05T06:06:34.553Z,104201.78
2023-02-05T06:09:14.980Z,104189.59
2023-02-05T06:11:43.651Z,104185.97
2023-02-05T06:14:12.282Z,104211.88
2023-02-05T06:16:42.083Z,104211.00
2023-02-05T06:19:10.670Z,104198.03
2023-02-05T06:21:44.090Z,104199.88
2023-02-05T06:24:12.847Z,104198.00
2023-02-05T06:26:48.940Z,104190.00
2023-02-05T06:29:17.702Z,104190.75
2023-02-05T06:31:47.500Z,104198.63
2023-02-05T06:34:16.220Z,104195.28
2023-02-05T06:36:44.838Z,104190.22
2023-02-05T06:39:13.432Z,104200.69
2023-02-05T06:41:42.240Z,104209.38
2023-02-05T06:44:12.621Z,104211.97
2023-02-05T06:46:41.449Z,104229.41
2023-02-05T06:49:10.159Z,104232.97
2023-02-05T06:51:39.829Z,104211.22
2023-02-05T06:54:08.415Z,104218.09
2023-02-05T06:56:36.983Z,104222.50
2023-02-05T06:59:06.531Z,104220.00
2023-02-05T07:01:36.630Z,104222.63
2023-02-05T07:04:05.421Z,104226.91
2023-02-05T07:06:36.020Z,104244.97
2023-02-05T07:09:06.724Z,104256.06
2023-02-05T07:11:35.853Z,104257.69
2023-02-05T07:14:05.704Z,104256.72
2023-02-05T07:16:35.823Z,104259.44
2023-02-05T07:19:04.518Z,104262.75
2023-02-05T07:21:34.108Z,104245.41
2023-02-05T07:24:03.442Z,104243.69
2023-02-05T07:26:33.155Z,104273.34
2023-02-05T07:29:02.114Z,104256.91
2023-02-05T07:31:30.791Z,104247.25
2023-02-05T07:34:00.870Z,104258.53
2023-02-05T07:36:29.700Z,104270.75
2023-02-05T07:38:59.875Z,104276.81
2023-02-05T07:41:28.547Z,104269.81
2023-02-05T07:43:57.220Z,104272.31
2023-02-05T07:46:25.764Z,104285.19
2023-02-05T07:48:56.607Z,104269.44
2023-02-05T07:51:26.894Z,104267.69
2023-02-05T07:53:55.513Z,104260.00
2023-02-05T07:56:26.131Z,104261.78
2023-02-05T07:58:55.771Z,104261.09
2023-02-05T08:01:25.416Z,104254.25
2023-02-05T08:03:54.168Z,104251.69
2023-02-05T08:06:22.753Z,104263.81
2023-02-05T08:08:52.825Z,104267.19
2023-02-05T08:11:21.534Z,104269.88
2023-02-05T08:13:50.223Z,104272.50
2023-02-05T08:16:19.315Z,104264.72
2023-02-05T08:18:50.810Z,104264.75
2023-02-05T08:21:22.109Z,104265.72
2023-02-05T08:23:57.893Z,104272.63
2023-02-05T08:26:26.531Z,104258.03
2023-02-05T08:28:56.867Z,104248.69
2023-02-05T08:31:28.252Z,104265.34
2023-02-05T08:33:58.135Z,104269.03
2023-02-05T08:36:27.128Z,104254.47
2023-02-05T08:38:58.329Z,104252.88
2023-02-05T08:41:27.245Z,104256.38
2023-02-05T08:43:55.896Z,104262.50
2023-02-05T08:46:31.608Z,104254.56
2023-02-05T08:49:05.976Z,104255.41
2023-02-05T08:51:36.016Z,104253.75
2023-02-05T08:54:09.682Z,104262.66
2023-02-05T08:57:12.106Z,104260.19
2023-02-05T08:59:40.925Z,104264.72
2023-02-05T09:02:16.357Z,104259.94
2023-02-05T09:04:45.059Z,104249.84
2023-02-05T09:07:13.661Z,104247.56
2023-02-05T09:09:43.878Z,104251.47
2023-02-05T09:12:12.516Z,104249.06
2023-02-05T09:14:41.270Z,104236.25
2023-02-05T09:17:14.779Z,104236.09
2023-02-05T09:19:43.852Z,104238.78
2023-02-05T09:22:12.434Z,104242.41
2023-02-05T09:24:42.653Z,104237.22
2023-02-05T09:27:14.448Z,104252.16
2023-02-05T09:29:43.819Z,104263.50
2023-02-05T09:32:12.857Z,104260.19
2023-02-05T09:34:41.561Z,104250.78
2023-02-05T09:37:10.159Z,104245.06
2023-02-05T09:42:38.503Z,104239.66
2023-02-05T09:45:19.792Z,104230.81
2023-02-05T09:47:56.051Z,104236.97
2023-02-05T09:50:30.237Z,104237.97
2023-02-05T09:53:06.055Z,104235.41
2023-02-05T09:55:37.824Z,104228.47
2023-02-05T09:58:13.470Z,104234.06
2023-02-05T10:00:48.247Z,104227.22
2023-02-05T10:03:26.041Z,104225.63
2023-02-05T10:06:11.791Z,104222.31
2023-02-05T10:08:48.937Z,104214.63
2023-02-05T10:11:25.067Z,104211.50
2023-02-05T10:14:06.901Z,104208.94
2023-02-05T10:16:50.455Z,104203.63
2023-02-05T10:19:40.578Z,104194.06
2023-02-05T10:22:17.288Z,104196.66
2023-02-05T10:25:12.941Z,104218.44
2023-02-05T10:27:55.562Z,104200.94
2023-02-05T10:30:39.752Z,104231.16
2023-02-05T10:33:18.686Z,104215.44
2023-02-05T10:35:52.829Z,104218.00
2023-02-05T10:38:25.192Z,104230.16
2023-02-05T10:41:00.490Z,104220.78
2023-02-05T10:43:33.045Z,104216.56
2023-02-05T10:46:03.402Z,104207.91
2023-02-05T10:48:42.880Z,104209.91
2023-02-05T10:51:15.459Z,104210.91
2023-02-05T10:53:45.227Z,104213.63
2023-02-05T10:56:19.037Z,104193.56
2023-02-05T10:58:53.669Z,104199.69
2023-02-05T11:01:26.702Z,104194.47
2023-02-05T11:04:01.487Z,104192.75
2023-02-05T11:06:34.210Z,104186.66
2023-02-05T11:09:02.982Z,104187.53
2023-02-05T11:11:33.668Z,104188.31
2023-02-05T11:14:06.406Z,104190.00
2023-02-05T11:16:43.646Z,104183.00
2023-02-05T11:19:23.559Z,104174.31
2023-02-05T11:21:55.507Z,104177.03
2023-02-05T11:24:27.359Z,104184.94
2023-02-05T11:27:29.260Z,104162.22
2023-02-05T11:30:00.227Z,104179.66
2023-02-05T11:32:37.701Z,104172.69
2023-02-05T11:35:23.561Z,104157.00
2023-02-05T11:38:01.820Z,104165.75
2023-02-05T11:40:33.342Z,104168.41
2023-02-05T11:43:06.423Z,104168.38
2023-02-05T11:45:38.965Z,104171.88
2023-02-05T11:48:27.452Z,104162.25
2023-02-05T11:50:56.436Z,104177.91
2023-02-05T11:53:25.578Z,104168.19
2023-02-05T11:55:57.309Z,104163.72
2023-02-05T11:58:36.700Z,104150.56
2023-02-05T12:01:22.007Z,104148.63
2023-02-05T12:04:00.662Z,104148.78
2023-02-05T12:06:36.989Z,104149.75
2023-02-05T12:09:07.333Z,104142.56
2023-02-05T12:12:07.121Z,104134.09
2023-02-05T12:14:43.993Z,104130.81
2023-02-05T12:17:34.127Z,104108.28
2023-02-05T12:20:14.179Z,104104.19
2023-02-05T12:23:04.817Z,104101.25
2023-02-05T12:25:44.360Z,104102.31
2023-02-05T12:28:27.038Z,104097.78
2023-02-05T12:31:09.114Z,104097.16
2023-02-05T12:34:10.174Z,104094.47
2023-02-05T12:37:03.084Z,104084.66
2023-02-05T12:39:42.668Z,104082.72
2023-02-05T12:42:23.076Z,104072.09
2023-02-05T12:45:06.077Z,104074.91
2023-02-05T12:47:59.825Z,104074.00
2023-02-05T12:50:51.238Z,104065.38
2023-02-05T12:53:38.713Z,104064.97
2023-02-05T12:56:34.427Z,104055.59
2023-02-05T12:59:11.342Z,104057.38
2023-02-05T13:01:44.660Z,104044.00
2023-02-05T13:04:24.699Z,104049.88
2023-02-05T13:07:00.132Z,104052.06
2023-02-05T13:09:43.125Z,104046.53
2023-02-05T13:12:16.287Z,104045.38
2023-02-05T13:14:54.724Z,104047.97
2023-02-05T13:17:26.878Z,104026.94
2023-02-05T13:20:00.426Z,104041.91
2023-02-05T13:22:54.602Z,104041.75
2023-02-05T13:25:48.957Z,104040.84
2023-02-05T13:28:43.223Z,104047.13
2023-02-05T13:31:22.766Z,104042.03
2023-02-05T13:33:53.285Z,104044.50
2023-02-05T13:36:50.326Z,104027.50
2023-02-05T13:39:52.998Z,104015.25
2023-02-05T13:42:50.212Z,104013.69
2023-02-05T13:45:39.558Z,104001.09
2023-02-05T13:48:26.839Z,104008.06
2023-02-05T13:51:14.996Z,103995.34
2023-02-05T13:53:58.638Z,103994.06
2023-02-05T13:56:43.478Z,103996.00
2023-02-05T13:59:18.991Z,103989.91
2023-02-05T14:01:54.241Z,103989.84
2023-02-05T14:04:26.968Z,103986.03
2023-02-05T14:07:02.032Z,103984.81
2023-02-05T14:09:36.931Z,103983.75
2023-02-05T14:12:09.526Z,103986.94
2023-02-05T14:14:41.314Z,103977.84
2023-02-05T14:17:49.497Z,103964.44
2023-02-05T14:20:36.962Z,103964.25
2023-02-05T14:23:15.970Z,103954.06
2023-02-05T14:26:11.802Z,103953.72
2023-02-05T14:28:49.763Z,103956.53
2023-02-05T14:31:47.808Z,103931.63
2023-02-05T14:34:56.514Z,103926.66
2023-02-05T14:37:34.066Z,103920.69
2023-02-05T14:40:22.935Z,103916.03
2023-02-05T14:42:57.128Z,103910.38
2023-02-05T14:45:31.133Z,103905.97
2023-02-05T14:48:02.615Z,103901.63
2023-02-05T14:50:31.852Z,103892.50
2023-02-05T14:53:03.325Z,103892.34
2023-02-05T14:55:40.017Z,103894.06
2023-02-05T14:58:23.183Z,103896.34
2023-02-05T15:00:53.417Z,103897.47
2023-02-05T15:03:38.944Z,103900.16
2023-02-05T15:06:15.402Z,103901.84
2023-02-05T15:08:50.669Z,103903.53
2023-02-05T15:11:28.312Z,103897.41
2023-02-05T15:14:35.591Z,103893.88
2023-02-05T15:17:41.536Z,103874.41
2023-02-05T15:20:25.491Z,103871.47
2023-02-05T15:23:04.551Z,103870.47
2023-02-05T15:25:41.138Z,103868.13
2023-02-05T15:28:20.004Z,103874.00
2023-02-05T15:30:56.061Z,103864.25
2023-02-05T15:33:34.563Z,103875.38
2023-02-05T15:36:12.087Z,103867.88
2023-02-05T15:38:48.045Z,103863.59
2023-02-05T15:41:17.704Z,103855.22
2023-02-05T15:44:00.679Z,103862.31
2023-02-05T15:46:31.331Z,103866.44
2023-02-05T15:49:01.367Z,103874.44
2023-02-05T15:51:34.884Z,103879.19
2023-02-05T15:54:05.857Z,103883.53
2023-02-05T15:56:38.228Z,103889.72
2023-02-05T15:59:13.995Z,103893.50
2023-02-05T16:01:47.014Z,103900.38
2023-02-05T16:04:20.094Z,103905.56
2023-02-05T16:06:50.828Z,103903.03
2023-02-05T16:09:21.257Z,103900.97
2023-02-05T16:11:50.668Z,103896.09
2023-02-05T16:14:21.101Z,103893.16
2023-02-05T16:17:01.156Z,103888.09
2023-02-05T16:19:36.547Z,103883.78
2023-02-05T16:22:30.606Z,103893.53
2023-02-05T16:25:03.714Z,103882.38
2023-02-05T16:27:39.666Z,103886.88
2023-02-05T16:30:17.605Z,103885.97
2023-02-05T16:32:46.448Z,103887.06
2023-02-05T16:35:24.072Z,103890.63
2023-02-05T16:37:54.331Z,103887.22
2023-02-05T16:40:36.114Z,103885.44
2023-02-05T16:43:28.803Z,103875.09
2023-02-05T16:46:26.408Z,103880.41
2023-02-05T16:48:57.620Z,103870.91
2023-02-05T16:51:37.200Z,103871.81
2023-02-05T16:54:29.959Z,103866.69
2023-02-05T16:57:03.605Z,103858.00
2023-02-05T16:59:35.610Z,103853.72
2023-02-05T17:02:04.805Z,103852.88
2023-02-05T17:04:37.155Z,103853.88
2023-02-05T17:07:17.205Z,103849.53
2023-02-05T17:09:47.428Z,103852.19
2023-02-05T17:12:40.311Z,103851.34
2023-02-05T17:15:28.479Z,103862.78
2023-02-05T17:17:59.733Z,103864.59
2023-02-05T17:20:30.072Z,103875.13
2023-02-05T17:23:15.655Z,103878.66
2023-02-05T17:25:54.802Z,103881.34
2023-02-05T17:28:26.386Z,103894.53
2023-02-05T17:30:58.000Z,103887.53
2023-02-05T17:33:29.019Z,103893.72
2023-02-05T17:35:57.701Z,103884.06
2023-02-05T17:38:26.104Z,103878.84
2023-02-05T17:41:16.357Z,103874.50
2023-02-05T17:43:45.026Z,103888.56
2023-02-05T17:46:15.454Z,103885.06
2023-02-05T17:48:44.836Z,103884.22
2023-02-05T17:51:20.669Z,103884.25
2023-02-05T17:53:49.689Z,103888.66
2023-02-05T17:56:21.547Z,103882.53
2023-02-05T17:58:51.944Z,103886.06
2023-02-05T18:01:25.244Z,103884.31
2023-02-05T18:03:54.150Z,103887.84
2023-02-05T18:06:22.777Z,103895.72
2023-02-05T18:08:51.291Z,103886.94
2023-02-05T18:11:21.455Z,103880.00
2023-02-05T18:13:49.988Z,103896.63
2023-02-05T18:16:19.077Z,103893.13
2023-02-05T18:18:47.865Z,103893.13
2023-02-05T18:21:16.936Z,103894.91
2023-02-05T18:23:45.521Z,103890.53
2023-02-05T18:26:14.275Z,103883.56
2023-02-05T18:28:45.710Z,103878.34
2023-02-05T18:31:15.723Z,103870.50
2023-02-05T18:33:44.694Z,103875.72
2023-02-05T18:36:14.666Z,103886.22
2023-02-05T18:38:44.390Z,103882.72
2023-02-05T18:41:14.898Z,103879.25
2023-02-05T18:43:46.299Z,103877.50
2023-02-05T18:46:17.772Z,103875.78
2023-02-05T18:48:46.549Z,103867.03
2023-02-05T18:51:18.154Z,103863.56
2023-02-05T18:53:47.889Z,103867.06
2023-02-05T18:56:18.893Z,103860.06
2023-02-05T18:58:54.324Z,103867.09
2023-02-05T19:01:23.177Z,103870.56
2023-02-05T19:03:55.324Z,103865.34
2023-02-05T19:06:24.186Z,103858.34
2023-02-05T19:08:53.047Z,103860.97
2023-02-05T19:11:24.311Z,103866.19
2023-02-05T19:13:59.433Z,103854.00
2023-02-05T19:16:29.871Z,103854.88
2023-02-05T19:18:59.241Z,103854.88
2023-02-05T19:21:30.982Z,103849.66
2023-02-05T19:24:05.665Z,103843.53
2023-02-05T19:26:36.465Z,103849.66
2023-02-05T19:29:09.421Z,103856.63
2023-02-05T19:31:38.689Z,103860.97
2023-02-05T19:34:08.150Z,103857.50
2023-02-05T19:36:37.465Z,103868.81
2023-02-05T19:39:08.720Z,103876.72
2023-02-05T19:41:38.831Z,103874.97
2023-02-05T19:44:10.480Z,103877.56
2023-02-05T19:46:42.248Z,103872.31
2023-02-05T19:49:14.785Z,103873.19
2023-02-05T19:51:47.084Z,103874.94
2023-02-05T19:54:16.210Z,103880.16
2023-02-05T19:56:45.244Z,103872.34
2023-02-05T19:59:17.135Z,103877.56
2023-02-05T20:01:46.903Z,103863.59
2023-02-05T20:04:17.833Z,103869.69
2023-02-05T20:06:48.428Z,103857.50
2023-02-05T20:09:18.640Z,103853.13
2023-02-05T20:11:49.192Z,103851.38
2023-02-05T20:14:19.655Z,103846.16
2023-02-05T20:16:48.889Z,103848.78
2023-02-05T20:19:18.183Z,103844.38
2023-02-05T20:21:48.517Z,103844.41
2023-02-05T20:24:17.592Z,103843.50
2023-02-05T20:26:48.636Z,103838.31
2023-02-05T20:29:36.351Z,103836.56
2023-02-05T20:32:05.808Z,103834.78
2023-02-05T20:34:36.381Z,103839.13
2023-02-05T20:37:06.823Z,103837.38
2023-02-05T20:39:39.866Z,103831.28
2023-02-05T20:42:08.656Z,103828.66
2023-02-05T20:44:38.970Z,103828.66
2023-02-05T20:47:09.510Z,103826.88
2023-02-05T20:49:40.276Z,103831.22
2023-02-05T20:52:09.362Z,103823.41
2023-02-05T20:54:38.418Z,103820.81
2023-02-05T20:57:08.008Z,103821.66
2023-02-05T20:59:39.612Z,103824.25
2023-02-05T21:02:09.042Z,103818.16
2023-02-05T21:04:38.522Z,103817.25
2023-02-05T21:07:07.006Z,103810.25
2023-02-05T21:09:35.703Z,103816.34
2023-02-05T21:12:05.705Z,103810.25
2023-02-05T21:14:34.329Z,103804.13
2023-02-05T21:17:05.082Z,103807.59
2023-02-05T21:19:33.632Z,103804.06
2023-02-05T21:22:02.285Z,103812.75
2023-02-05T21:24:30.880Z,103805.81
2023-02-05T21:26:59.761Z,103812.81
2023-02-05T21:29:29.378Z,103814.53
2023-02-05T21:31:57.966Z,103804.00
2023-02-05T21:34:29.724Z,103803.97
2023-02-05T21:36:58.949Z,103814.38
2023-02-05T21:39:28.567Z,103816.09
2023-02-05T21:41:57.346Z,103815.19
2023-02-05T21:44:25.990Z,103811.69
2023-02-05T21:46:55.487Z,103818.69
2023-02-05T21:49:24.390Z,103827.41
2023-02-05T21:51:54.791Z,103831.75
2023-02-05T21:54:25.945Z,103825.66
2023-02-05T21:56:55.035Z,103817.81
2023-02-05T21:59:24.484Z,103814.34
2023-02-05T22:01:54.584Z,103818.69
2023-02-05T22:04:23.188Z,103823.09
2023-02-05T22:06:54.076Z,103827.44
2023-02-05T22:09:22.700Z,103819.56
2023-02-05T22:11:52.615Z,103816.94
2023-02-05T22:14:21.646Z,103813.44
2023-02-05T22:16:51.216Z,103814.25
2023-02-05T22:19:19.923Z,103813.34
2023-02-05T22:21:48.525Z,103803.72
2023-02-05T22:24:20.685Z,103809.00
2023-02-05T22:26:49.496Z,103802.94
2023-02-05T22:29:20.575Z,103809.00
2023-02-05T22:31:52.799Z,103801.94
2023-02-05T22:34:22.419Z,103805.44
2023-02-05T22:36:51.216Z,103805.47
2023-02-05T22:39:21.366Z,103807.25
2023-02-05T22:41:49.977Z,103809.88
2023-02-05T22:44:19.945Z,103804.69
2023-02-05T22:46:49.048Z,103806.44
2023-02-05T22:49:17.655Z,103806.41
2023-02-05T22:51:46.814Z,103804.66
2023-02-05T22:54:17.326Z,103802.06
2023-02-05T22:56:47.498Z,103803.78
2023-02-05T22:59:17.251Z,103809.91
2023-02-05T23:01:45.806Z,103815.00
2023-02-05T23:04:14.257Z,103809.78
2023-02-05T23:06:45.454Z,103807.91
2023-02-05T23:09:17.902Z,103813.13
2023-02-05T23:11:48.811Z,103807.97
2023-02-05T23:14:19.159Z,103805.38
2023-02-05T23:16:49.134Z,103807.13
2023-02-05T23:19:20.738Z,103807.06
2023-02-05T23:21:50.894Z,103800.97
2023-02-05T23:24:23.943Z,103806.09
2023-02-05T23:26:55.119Z,103800.03
2023-02-05T23:29:24.090Z,103796.59
2023-02-05T23:31:53.600Z,103799.16
2023-02-05T23:34:22.430Z,103799.16
2023-02-05T23:36:51.050Z,103799.97
2023-02-05T23:39:19.676Z,103797.34
2023-02-05T23:41:48.683Z,103797.34
2023-02-05T23:44:20.315Z,103798.97
2023-02-05T23:46:50.107Z,103799.00
2023-02-05T23:49:21.548Z,103797.19
2023-02-05T23:51:50.314Z,103799.81
2023-02-05T23:54:19.074Z,103788.50
2023-02-05T23:56:48.219Z,103785.97
2023-02-05T23:59:18.813Z,103793.81
